Brightway — 9V8755 — position and weather

sailwx.info

Track history (hours):
 
Tides and Currents Weather Stations Pressure Air Temp Water Temp Dewpoint Dewpoint Depression Visibility Wind Speed Wind Dir Waves Ship Positions

Brightway

Last reported at 2014-Sep-27 11:09 UTC. Time now 2014-Oct-25 00:38 UTC.
Position N 01°23' E 103°15'.
Warning: this ship's position is 27 days out of date.

Length 274 m; draft 9.5 m.

Type: Tanker. MMSI: 566422000.

Date/timePositionNaut miles runAvg speedWind from/ knotsBaromVisibWave heightAir tempDewpointWater temp
2014-Sep-27 11:09N 01°23' E 103°15'914.7
2014-Sep-27 10:33N 01°17' E 103°22'1414.4
2014-Sep-27 09:33N 01°12' E 103°35'1111.1
2014-Sep-27 08:33N 01°09' E 103°46'9 8.9
2014-Sep-27 07:33N 01°13' E 103°54'3 2.5
2014-Sep-27 06:28N 01°16' E 103°54'0 0.1
2014-Sep-27 05:31N 01°16' E 103°54'0 0.0
2014-Sep-27 04:31N 01°16' E 103°54'0 0.0
2014-Sep-27 03:31N 01°16' E 103°54'0 0.0
2014-Sep-27 02:31N 01°16' E 103°54'0 0.0
2014-Sep-27 01:31N 01°16' E 103°54'0 0.1
2014-Sep-27 00:31N 01°16' E 103°54'0 0.0
2014-Sep-26 23:31N 01°16' E 103°54'0 0.1
2014-Sep-26 22:31N 01°16' E 103°54'0 0.0
2014-Sep-26 21:31N 01°16' E 103°54'0 0.1
2014-Sep-26 20:31N 01°16' E 103°54'0 0.1
2014-Sep-26 19:31N 01°16' E 103°54'0 0.1
2014-Sep-26 18:31N 01°16' E 103°54'0 0.0
2014-Sep-26 17:31N 01°16' E 103°54'0 0.0
2014-Sep-26 16:31N 01°16' E 103°54'0 0.0
2014-Sep-26 15:28N 01°16' E 103°54'0 0.0
2014-Sep-26 14:31N 01°16' E 103°54'0 0.0
2014-Sep-26 13:31N 01°16' E 103°54'0 0.0
2014-Sep-26 12:31N 01°16' E 103°54'0 0.0
2014-Sep-26 11:31N 01°16' E 103°54'0 0.0
2014-Sep-26 10:31N 01°16' E 103°54'0 0.1
2014-Sep-26 09:31N 01°16' E 103°54'0 0.1
2014-Sep-26 08:28N 01°16' E 103°54'0 0.1
2014-Sep-26 07:31N 01°16' E 103°55'0 0.1
2014-Sep-26 06:31N 01°16' E 103°55'0 0.2
2014-Sep-26 05:31N 01°16' E 103°54'0 0.1
2014-Sep-26 04:25N 01°16' E 103°54'0 0.0
2014-Sep-26 03:31N 01°16' E 103°54'0 0.0
2014-Sep-26 02:31N 01°16' E 103°54'0 0.1
2014-Sep-26 01:31N 01°16' E 103°54'0 0.0
2014-Sep-26 00:31N 01°16' E 103°54'0 0.1
2014-Sep-25 23:31N 01°16' E 103°55'0 0.1
2014-Sep-25 22:31N 01°16' E 103°55'0 0.1
2014-Sep-25 21:31N 01°16' E 103°55'0 0.1
2014-Sep-25 20:31N 01°16' E 103°55'0 0.1
2014-Sep-25 19:31N 01°16' E 103°55'0 0.1
2014-Sep-25 18:31N 01°16' E 103°55'0 0.2
2014-Sep-25 17:31N 01°16' E 103°54'0 0.1
2014-Sep-25 16:28N 01°16' E 103°54'1 1.6
2014-Sep-25 15:33N 01°14' E 103°55'6 5.6
2014-Sep-25 14:33N 01°16' E 104°00'  
2014-Sep-20 07:06N 19°47' E 108°57'0 0.0
2014-Sep-20 06:15N 19°47' E 108°57'0 0.2
2014-Sep-20 03:33N 19°47' E 108°57'7 7.3
2014-Sep-20 02:33N 19°49' E 109°05'  
Track history (hours):
 
Tides and Currents Weather Stations Pressure Air Temp Water Temp Dewpoint Dewpoint Depression Visibility Wind Speed Wind Dir Waves Ship Positions

Brightway

Last reported at 2014-Sep-27 11:09 UTC. Time now 2014-Oct-25 00:38 UTC.
Position N 01°23' E 103°15'.
Warning: this ship's position is 27 days out of date.

Length 274 m; draft 9.5 m.

Type: Tanker. MMSI: 566422000.

Date/timePositionNaut miles runAvg speedWind from/ knotsBaromVisibWave heightAir tempDewpointWater temp
2014-Sep-27 11:09N 01°23' E 103°15'914.7
2014-Sep-27 10:33N 01°17' E 103°22'1414.4
2014-Sep-27 09:33N 01°12' E 103°35'1111.1
2014-Sep-27 08:33N 01°09' E 103°46'9 8.9
2014-Sep-27 07:33N 01°13' E 103°54'3 2.5
2014-Sep-27 06:28N 01°16' E 103°54'0 0.1
2014-Sep-27 05:31N 01°16' E 103°54'0 0.0
2014-Sep-27 04:31N 01°16' E 103°54'0 0.0
2014-Sep-27 03:31N 01°16' E 103°54'0 0.0
2014-Sep-27 02:31N 01°16' E 103°54'0 0.0
2014-Sep-27 01:31N 01°16' E 103°54'0 0.1
2014-Sep-27 00:31N 01°16' E 103°54'0 0.0
2014-Sep-26 23:31N 01°16' E 103°54'0 0.1
2014-Sep-26 22:31N 01°16' E 103°54'0 0.0
2014-Sep-26 21:31N 01°16' E 103°54'0 0.1
2014-Sep-26 20:31N 01°16' E 103°54'0 0.1
2014-Sep-26 19:31N 01°16' E 103°54'0 0.1
2014-Sep-26 18:31N 01°16' E 103°54'0 0.0
2014-Sep-26 17:31N 01°16' E 103°54'0 0.0
2014-Sep-26 16:31N 01°16' E 103°54'0 0.0
2014-Sep-26 15:28N 01°16' E 103°54'0 0.0
2014-Sep-26 14:31N 01°16' E 103°54'0 0.0
2014-Sep-26 13:31N 01°16' E 103°54'0 0.0
2014-Sep-26 12:31N 01°16' E 103°54'0 0.0
2014-Sep-26 11:31N 01°16' E 103°54'0 0.0
2014-Sep-26 10:31N 01°16' E 103°54'0 0.1
2014-Sep-26 09:31N 01°16' E 103°54'0 0.1
2014-Sep-26 08:28N 01°16' E 103°54'0 0.1
2014-Sep-26 07:31N 01°16' E 103°55'0 0.1
2014-Sep-26 06:31N 01°16' E 103°55'0 0.2
2014-Sep-26 05:31N 01°16' E 103°54'0 0.1
2014-Sep-26 04:25N 01°16' E 103°54'0 0.0
2014-Sep-26 03:31N 01°16' E 103°54'0 0.0
2014-Sep-26 02:31N 01°16' E 103°54'0 0.1
2014-Sep-26 01:31N 01°16' E 103°54'0 0.0
2014-Sep-26 00:31N 01°16' E 103°54'0 0.1
2014-Sep-25 23:31N 01°16' E 103°55'0 0.1
2014-Sep-25 22:31N 01°16' E 103°55'0 0.1
2014-Sep-25 21:31N 01°16' E 103°55'0 0.1
2014-Sep-25 20:31N 01°16' E 103°55'0 0.1
2014-Sep-25 19:31N 01°16' E 103°55'0 0.1
2014-Sep-25 18:31N 01°16' E 103°55'0 0.2
2014-Sep-25 17:31N 01°16' E 103°54'0 0.1
2014-Sep-25 16:28N 01°16' E 103°54'1 1.6
2014-Sep-25 15:33N 01°14' E 103°55'6 5.6
2014-Sep-25 14:33N 01°16' E 104°00'  
2014-Sep-20 07:06N 19°47' E 108°57'0 0.0
2014-Sep-20 06:15N 19°47' E 108°57'0 0.2
2014-Sep-20 03:33N 19°47' E 108°57'7 7.3
2014-Sep-20 02:33N 19°49' E 109°05'  

Dump ship's entire track history